Time;durP1;ratioP1;P1;durP2;ratioP2;P2;SDS_P1;SDS_P2;PMS_P1;PMS_P2;Temp;Humidity;BMP_temperature;BMP_pressure;BME280_temperature;BME280_humidity;BME280_pressure;Samples;Min_cycle;Max_cycle;Signal;HPM_P1;HPM_P2
2021/04/27 00:01:14;;;;;;;0.80;0.80;;;18.10;48.30;;;;;;5059728;28;20231;-64
2021/04/27 00:03:39;;;;;;;0.75;0.75;;;18.10;48.30;;;;;;5075675;28;20502;-65
2021/04/27 00:06:05;;;;;;;1.30;0.95;;;18.00;48.80;;;;;;5076354;28;20276;-65
2021/04/27 00:08:30;;;;;;;1.08;0.90;;;18.10;48.30;;;;;;5075338;28;20649;-68
2021/04/27 00:10:56;;;;;;;1.20;1.10;;;18.00;48.30;;;;;;5076333;28;20177;-63
2021/04/27 00:13:22;;;;;;;0.70;0.70;;;18.00;48.30;;;;;;5076435;28;20236;-64
2021/04/27 00:15:47;;;;;;;1.17;1.00;;;18.00;48.30;;;;;;5075298;28;21018;-64
2021/04/27 00:18:13;;;;;;;1.75;1.10;;;18.00;48.30;;;;;;5076383;28;20200;-64
2021/04/27 00:20:38;;;;;;;0.90;0.90;;;18.00;48.40;;;;;;5059252;28;20652;-65
2021/04/27 00:23:04;;;;;;;0.88;0.88;;;18.00;48.40;;;;;;5075593;28;20174;-64
2021/04/27 00:25:30;;;;;;;1.00;0.90;;;18.00;48.30;;;;;;5093616;28;20244;-64
2021/04/27 00:27:56;;;;;;;1.30;1.00;;;18.00;48.40;;;;;;5059163;28;20177;-63
2021/04/27 00:30:23;;;;;;;1.00;1.00;;;17.90;48.40;;;;;;5093398;28;20311;-65
2021/04/27 00:32:50;;;;;;;1.02;0.90;;;18.00;48.40;;;;;;5075388;28;20564;-62
2021/04/27 00:35:15;;;;;;;0.80;0.80;;;17.90;48.40;;;;;;5075854;28;20250;-63
2021/04/27 00:37:41;;;;;;;1.55;1.10;;;18.00;48.40;;;;;;5058175;28;20327;-63
2021/04/27 00:40:08;;;;;;;1.92;0.90;;;18.00;48.40;;;;;;5075965;28;20169;-64
2021/04/27 00:42:35;;;;;;;0.80;0.80;;;17.90;48.40;;;;;;5093646;28;20165;-70
2021/04/27 00:45:01;;;;;;;1.08;0.98;;;17.90;48.40;;;;;;5074809;28;20698;-70
2021/04/27 00:47:26;;;;;;;1.85;1.00;;;17.90;48.40;;;;;;5059154;28;20260;-64
2021/04/27 00:49:55;;;;;;;1.35;1.23;;;17.90;48.40;;;;;;5075101;28;20173;-62
2021/04/27 00:52:21;;;;;;;0.77;0.77;;;17.90;48.40;;;;;;5074722;28;20548;-63
2021/04/27 00:54:47;;;;;;;0.93;0.80;;;17.90;48.40;;;;;;5058499;28;20264;-67
2021/04/27 00:57:13;;;;;;;0.88;0.85;;;17.90;48.40;;;;;;5075402;28;20260;-63
2021/04/27 00:59:39;;;;;;;0.75;0.75;;;17.90;48.40;;;;;;5092668;28;20222;-70
2021/04/27 01:02:05;;;;;;;0.80;0.80;;;17.80;48.40;;;;;;5058634;28;20176;-63
2021/04/27 01:04:31;;;;;;;0.80;0.70;;;17.80;48.40;;;;;;5075010;28;20621;-63
2021/04/27 01:06:56;;;;;;;0.82;0.80;;;17.80;48.40;;;;;;5058128;28;20212;-70
2021/04/27 01:09:28;;;;;;;0.95;0.80;;;17.80;48.30;;;;;;5093180;28;20171;-66
2021/04/27 01:11:58;;;;;;;1.20;0.73;;;17.80;48.30;;;;;;5074721;28;20238;-66
2021/04/27 01:14:33;;;;;;;1.50;0.90;;;17.80;48.40;;;;;;5075126;28;20621;-64
2021/04/27 01:17:09;;;;;;;1.05;0.98;;;17.80;48.30;;;;;;5075118;28;20174;-70
2021/04/27 01:20:04;;;;;;;1.13;1.05;;;17.80;48.30;;;;;;5058566;28;20173;-70
2021/04/27 01:22:57;;;;;;;0.90;0.90;;;17.80;48.40;;;;;;5070214;28;20265;-65
2021/04/27 01:25:59;;;;;;;1.17;0.93;;;17.80;48.30;;;;;;5092882;28;20209;-64
2021/04/27 01:28:27;;;;;;;0.88;0.88;;;17.80;48.30;;;;;;5088787;28;20700;-64
2021/04/27 01:30:52;;;;;;;0.80;0.80;;;17.80;48.30;;;;;;5058330;28;20226;-70
2021/04/27 01:33:25;;;;;;;1.35;1.02;;;17.70;48.30;;;;;;5074517;28;20170;-63
2021/04/27 01:35:51;;;;;;;0.70;0.70;;;17.80;48.30;;;;;;5058162;28;20215;-64
2021/04/27 01:38:18;;;;;;;1.20;0.80;;;17.80;48.30;;;;;;5058291;28;20170;-69
2021/04/27 01:40:43;;;;;;;1.15;1.00;;;17.70;48.30;;;;;;5074077;28;20560;-65
2021/04/27 01:43:09;;;;;;;1.55;0.93;;;17.70;48.30;;;;;;5074947;28;20629;-66
2021/04/27 01:45:35;;;;;;;1.25;1.15;;;17.70;48.30;;;;;;5074497;28;20236;-72
2021/04/27 01:48:00;;;;;;;0.80;0.80;;;17.70;48.30;;;;;;5092300;28;20273;-64
2021/04/27 01:50:26;;;;;;;1.20;1.05;;;17.70;48.30;;;;;;5074949;28;20651;-65
2021/04/27 01:52:52;;;;;;;1.00;1.00;;;17.70;48.40;;;;;;5074565;28;20170;-64
2021/04/27 01:55:18;;;;;;;1.08;0.90;;;17.70;48.40;;;;;;5057498;28;20668;-69
2021/04/27 01:57:43;;;;;;;1.33;0.93;;;17.70;48.30;;;;;;5057724;28;20204;-66
2021/04/27 02:00:11;;;;;;;1.40;1.20;;;17.70;48.30;;;;;;5058286;28;20583;-65
2021/04/27 02:02:36;;;;;;;1.23;0.80;;;17.60;48.40;;;;;;5057293;28;20169;-64
2021/04/27 02:05:03;;;;;;;1.45;1.25;;;17.70;48.40;;;;;;5074521;28;20204;-63
2021/04/27 02:07:33;;;;;;;0.95;0.95;;;17.70;48.40;;;;;;5092457;28;20174;-64
2021/04/27 02:10:10;;;;;;;0.90;0.90;;;17.60;48.40;;;;;;5095627;28;20191;-63
2021/04/27 02:12:36;;;;;;;1.00;0.90;;;17.60;48.30;;;;;;5061519;28;20531;-66
2021/04/27 02:15:03;;;;;;;0.93;0.90;;;17.60;48.30;;;;;;5061334;28;20173;-65
2021/04/27 02:17:36;;;;;;;0.80;0.80;;;17.60;48.30;;;;;;5096323;28;20514;-71
2021/04/27 02:20:02;;;;;;;0.98;0.98;;;17.60;48.40;;;;;;5045754;28;20170;-63
2021/04/27 02:22:27;;;;;;;0.90;0.90;;;17.60;48.40;;;;;;5077497;28;20219;-66
2021/04/27 02:24:54;;;;;;;1.45;1.02;;;17.60;49.00;;;;;;5078142;28;20166;-65
2021/04/27 02:27:19;;;;;;;0.80;0.80;;;17.60;48.40;;;;;;5061759;28;20205;-67
2021/04/27 02:29:45;;;;;;;0.90;0.90;;;17.60;48.40;;;;;;5077208;28;20279;-66
2021/04/27 02:32:10;;;;;;;0.82;0.82;;;17.60;48.40;;;;;;5078217;28;20174;-63
2021/04/27 02:34:36;;;;;;;0.85;0.85;;;17.60;48.40;;;;;;5061272;28;20215;-65
2021/04/27 02:37:02;;;;;;;1.23;0.85;;;17.60;48.40;;;;;;5077632;28;20178;-62
2021/04/27 02:39:28;;;;;;;0.88;0.88;;;17.60;48.40;;;;;;5095958;28;20174;-68
2021/04/27 02:41:53;;;;;;;1.05;0.90;;;17.60;48.40;;;;;;5096109;28;20566;-63
2021/04/27 02:44:19;;;;;;;2.15;1.10;;;17.50;48.30;;;;;;5095379;28;20178;-65
2021/04/27 02:46:45;;;;;;;1.23;1.00;;;17.50;48.40;;;;;;5061026;28;20304;-72
2021/04/27 02:49:11;;;;;;;2.40;0.85;;;17.50;48.40;;;;;;5078136;28;20174;-62
2021/04/27 02:51:37;;;;;;;0.77;0.77;;;17.50;48.40;;;;;;5060437;28;20603;-65
2021/04/27 02:54:03;;;;;;;1.25;0.93;;;17.50;48.30;;;;;;5077857;28;20172;-65
2021/04/27 02:56:28;;;;;;;0.90;0.90;;;17.50;48.40;;;;;;5095495;28;20215;-67
2021/04/27 02:58:54;;;;;;;1.55;1.38;;;17.50;49.00;;;;;;5077090;28;20645;-65
2021/04/27 03:01:20;;;;;;;1.23;0.63;;;17.50;48.40;;;;;;5061227;28;20173;-71
2021/04/27 03:03:45;;;;;;;0.88;0.88;;;17.50;49.00;;;;;;5095178;28;20178;-72
2021/04/27 03:06:11;;;;;;;0.80;0.80;;;17.50;48.40;;;;;;5076975;28;20213;-69
2021/04/27 03:08:36;;;;;;;0.80;0.80;;;17.40;48.30;;;;;;5077279;28;20193;-65
2021/04/27 03:11:02;;;;;;;1.38;1.00;;;17.40;48.30;;;;;;5095571;28;20193;-66
2021/04/27 03:13:28;;;;;;;1.13;1.02;;;17.40;48.30;;;;;;5076625;28;20253;-67
2021/04/27 03:15:53;;;;;;;1.30;1.20;;;17.40;48.30;;;;;;5077344;28;20181;-63
2021/04/27 03:18:19;;;;;;;1.23;1.10;;;17.40;48.30;;;;;;5060268;28;20170;-63
2021/04/27 03:20:44;;;;;;;0.80;0.80;;;17.40;48.30;;;;;;5059111;28;20184;-67
2021/04/27 03:23:10;;;;;;;1.05;0.95;;;17.40;48.30;;;;;;5077472;28;20206;-69
2021/04/27 03:25:36;;;;;;;1.10;1.10;;;17.40;48.30;;;;;;5059532;28;20684;-65
2021/04/27 03:28:06;;;;;;;1.00;0.90;;;17.40;48.40;;;;;;5060456;28;20169;-66
2021/04/27 03:30:32;;;;;;;0.77;0.77;;;17.40;48.30;;;;;;5094847;28;20178;-64
2021/04/27 03:32:57;;;;;;;0.85;0.85;;;17.40;48.30;;;;;;5094494;28;20169;-68
2021/04/27 03:35:23;;;;;;;0.82;0.82;;;17.40;48.30;;;;;;5095114;28;20230;-69
2021/04/27 03:37:49;;;;;;;1.40;0.90;;;17.40;48.30;;;;;;5076780;28;20248;-65
2021/04/27 03:40:14;;;;;;;0.80;0.80;;;17.40;48.30;;;;;;5076421;28;20686;-70
2021/04/27 03:42:40;;;;;;;0.80;0.80;;;17.40;48.30;;;;;;5094551;28;20625;-71
2021/04/27 03:45:07;;;;;;;1.20;1.08;;;17.40;48.30;;;;;;5094922;28;20236;-66
2021/04/27 03:47:32;;;;;;;1.00;0.90;;;17.30;48.30;;;;;;5076357;28;20231;-65
2021/04/27 03:49:58;;;;;;;1.23;1.13;;;17.30;48.30;;;;;;5060450;28;20162;-65
2021/04/27 03:52:24;;;;;;;1.90;1.10;;;17.30;48.30;;;;;;5094861;28;20178;-63
2021/04/27 03:54:49;;;;;;;1.17;0.80;;;17.30;48.30;;;;;;5093775;28;20169;-67
2021/04/27 03:57:15;;;;;;;1.15;0.90;;;17.30;48.30;;;;;;5059951;28;20178;-66
2021/04/27 03:59:40;;;;;;;1.02;0.90;;;17.30;48.30;;;;;;5094376;28;20169;-72
2021/04/27 04:02:06;;;;;;;1.00;0.80;;;17.30;48.30;;;;;;5093928;28;20177;-65
2021/04/27 04:04:31;;;;;;;1.00;0.98;;;17.30;48.30;;;;;;5094241;28;20197;-65
2021/04/27 04:06:57;;;;;;;2.15;1.00;;;17.30;48.40;;;;;;5076726;28;20259;-66
2021/04/27 04:09:23;;;;;;;1.80;1.02;;;17.30;48.30;;;;;;5093852;28;20165;-68
2021/04/27 04:11:48;;;;;;;1.00;0.90;;;17.30;48.30;;;;;;5059434;28;20178;-66
2021/04/27 04:14:14;;;;;;;1.10;1.00;;;17.30;48.40;;;;;;5076144;28;20254;-67
2021/04/27 04:16:39;;;;;;;1.73;1.00;;;17.20;48.20;;;;;;5058657;28;20177;-65
2021/04/27 04:19:05;;;;;;;1.35;1.00;;;17.20;48.30;;;;;;5094348;28;20245;-66
2021/04/27 04:21:30;;;;;;;1.10;0.85;;;17.20;48.20;;;;;;5075863;28;20177;-66
2021/04/27 04:23:56;;;;;;;1.40;1.15;;;17.20;48.30;;;;;;5075555;28;20177;-71
2021/04/27 04:26:22;;;;;;;0.80;0.80;;;17.20;48.30;;;;;;5094121;28;20277;-70
2021/04/27 04:28:48;;;;;;;1.10;1.00;;;17.20;48.30;;;;;;5075111;28;20225;-64
2021/04/27 04:31:13;;;;;;;2.28;1.35;;;17.20;48.30;;;;;;5075856;28;20625;-65
2021/04/27 04:33:39;;;;;;;1.13;1.02;;;17.20;48.30;;;;;;5093697;28;20170;-63
2021/04/27 04:36:05;;;;;;;1.00;1.00;;;17.20;48.30;;;;;;5075360;28;20402;-65
2021/04/27 04:38:31;;;;;;;1.15;0.98;;;17.20;48.30;;;;;;5093609;28;20181;-68
2021/04/27 04:40:57;;;;;;;0.80;0.80;;;17.20;48.30;;;;;;5059316;28;20172;-65
2021/04/27 04:43:22;;;;;;;1.40;1.00;;;17.20;48.40;;;;;;5075292;28;20248;-67
2021/04/27 04:45:48;;;;;;;1.80;1.00;;;17.20;48.40;;;;;;5075216;28;20198;-65
2021/04/27 04:48:13;;;;;;;1.25;1.20;;;17.10;48.40;;;;;;5094429;28;20648;-72
2021/04/27 04:50:39;;;;;;;0.85;0.80;;;17.10;48.40;;;;;;5074569;28;20183;-69
2021/04/27 04:53:06;;;;;;;0.70;0.70;;;17.20;48.40;;;;;;5093813;28;20181;-64
2021/04/27 04:55:33;;;;;;;1.00;1.00;;;17.10;48.40;;;;;;5075795;28;20205;-69
2021/04/27 04:57:58;;;;;;;0.80;0.80;;;17.10;48.40;;;;;;5058482;28;20265;-65
2021/04/27 05:00:24;;;;;;;1.23;1.00;;;17.10;48.60;;;;;;5075673;28;20691;-66
2021/04/27 05:02:49;;;;;;;1.40;1.00;;;17.10;48.50;;;;;;5075595;28;20274;-64
2021/04/27 05:05:15;;;;;;;1.35;1.10;;;17.20;48.40;;;;;;5092648;28;20214;-69
2021/04/27 05:07:48;;;;;;;0.70;0.70;;;17.20;48.30;;;;;;5075587;28;20253;-70
2021/04/27 05:10:14;;;;;;;1.38;0.80;;;17.20;48.30;;;;;;5076201;28;20186;-66
2021/04/27 05:12:40;;;;;;;0.98;0.90;;;17.30;48.30;;;;;;5057823;28;20754;-70
2021/04/27 05:15:07;;;;;;;1.08;0.90;;;17.40;48.30;;;;;;5075177;28;20185;-65
2021/04/27 05:17:32;;;;;;;0.80;0.80;;;17.50;48.20;;;;;;5092983;28;20556;-66
2021/04/27 05:19:58;;;;;;;0.80;0.80;;;17.60;48.70;;;;;;5092547;28;20162;-66
2021/04/27 05:22:24;;;;;;;0.98;0.98;;;17.70;47.80;;;;;;5058505;28;20185;-66
2021/04/27 05:24:49;;;;;;;1.27;0.88;;;17.80;47.80;;;;;;5058119;28;20209;-70
2021/04/27 05:27:15;;;;;;;1.10;1.00;;;17.90;47.70;;;;;;5092505;28;20181;-65
2021/04/27 05:29:40;;;;;;;0.95;0.90;;;18.00;47.50;;;;;;5057825;28;20213;-63
2021/04/27 05:32:06;;;;;;;0.73;0.73;;;18.10;47.30;;;;;;5074560;28;20182;-63
2021/04/27 05:34:32;;;;;;;0.90;0.90;;;18.20;47.20;;;;;;5074664;28;20223;-68
2021/04/27 05:36:57;;;;;;;0.95;0.80;;;18.30;47.10;;;;;;5075236;28;20166;-64
2021/04/27 05:39:23;;;;;;;1.10;1.00;;;18.30;47.10;;;;;;5074381;28;20219;-65
2021/04/27 05:41:48;;;;;;;0.85;0.80;;;18.40;47.00;;;;;;5074608;28;20616;-66
2021/04/27 05:44:14;;;;;;;1.00;1.00;;;18.40;46.90;;;;;;5092166;28;20173;-65
2021/04/27 05:46:40;;;;;;;1.00;0.90;;;18.50;46.90;;;;;;5073770;28;20209;-65
2021/04/27 05:49:05;;;;;;;1.35;0.90;;;18.50;46.70;;;;;;5058249;28;20170;-64
2021/04/27 05:51:31;;;;;;;1.00;0.82;;;18.50;46.80;;;;;;5092744;28;20253;-64
2021/04/27 05:53:57;;;;;;;1.00;0.90;;;18.40;46.80;;;;;;5074160;28;20201;-65
2021/04/27 05:56:22;;;;;;;1.40;0.73;;;18.40;46.90;;;;;;5057982;28;20182;-65
2021/04/27 05:58:48;;;;;;;1.77;0.80;;;18.30;46.90;;;;;;5074599;28;20176;-65
2021/04/27 06:01:14;;;;;;;1.15;0.80;;;18.30;47.00;;;;;;5074229;28;20622;-64
2021/04/27 06:03:39;;;;;;;0.80;0.80;;;18.20;47.00;;;;;;5074480;28;20181;-71
2021/04/27 06:06:05;;;;;;;0.70;0.70;;;18.20;47.10;;;;;;5041202;28;20213;-73
2021/04/27 06:08:33;;;;;;;0.80;0.80;;;18.20;47.10;;;;;;5073853;28;20177;-70
2021/04/27 06:10:58;;;;;;;1.13;1.02;;;18.10;47.20;;;;;;5075084;28;20257;-69
2021/04/27 06:13:24;;;;;;;0.80;0.63;;;18.10;47.30;;;;;;5074711;28;20241;-70
2021/04/27 06:15:50;;;;;;;0.60;0.60;;;18.10;47.50;;;;;;5056911;28;20173;-72
2021/04/27 06:18:15;;;;;;;2.78;0.77;;;18.00;47.40;;;;;;5057927;28;20211;-70
2021/04/27 06:20:41;;;;;;;1.05;0.98;;;17.90;47.40;;;;;;5074347;28;20176;-73
2021/04/27 06:23:07;;;;;;;0.68;0.68;;;18.00;47.50;;;;;;5074139;28;20529;-69
2021/04/27 06:25:32;;;;;;;0.90;0.90;;;17.90;47.50;;;;;;5092040;28;20679;-72
2021/04/27 06:27:58;;;;;;;3.83;0.93;;;17.90;47.60;;;;;;5092491;28;20166;-74
2021/04/27 06:30:24;;;;;;;3.88;1.15;;;17.90;47.70;;;;;;5092312;28;20189;-77
2021/04/27 06:32:53;;;;;;;2.90;0.90;;;17.90;47.60;;;;;;5074254;28;20169;-77
2021/04/27 06:35:20;;;;;;;3.60;1.30;;;17.90;47.80;;;;;;5092030;28;20166;-77
2021/04/27 06:37:45;;;;;;;3.60;1.45;;;17.90;47.90;;;;;;5057628;28;20209;-75
2021/04/27 06:40:12;;;;;;;3.03;1.52;;;17.90;47.90;;;;;;5074506;28;20189;-74
2021/04/27 06:42:37;;;;;;;3.33;1.58;;;17.90;47.90;;;;;;5073346;28;20185;-75
2021/04/27 06:45:03;;;;;;;2.65;1.15;;;17.90;48.20;;;;;;5057458;28;20186;-75
2021/04/27 06:47:29;;;;;;;3.58;1.63;;;17.90;48.30;;;;;;5057434;28;20189;-73
2021/04/27 06:49:57;;;;;;;3.60;1.30;;;17.90;48.30;;;;;;5073887;28;20619;-76
2021/04/27 06:52:23;;;;;;;4.75;1.60;;;17.90;48.30;;;;;;5074344;28;20184;-76
2021/04/27 06:54:48;;;;;;;6.18;2.00;;;17.90;48.40;;;;;;5058699;28;20162;-75
2021/04/27 06:57:15;;;;;;;2.72;1.65;;;18.00;48.50;;;;;;5060497;28;20208;-74
2021/04/27 06:59:41;;;;;;;7.38;1.83;;;18.00;48.60;;;;;;5077665;28;20198;-75
2021/04/27 07:02:07;;;;;;;3.10;1.50;;;18.00;48.60;;;;;;5077720;28;20166;-73
2021/04/27 07:04:34;;;;;;;4.82;1.20;;;18.00;48.60;;;;;;5076751;28;20165;-73
2021/04/27 07:07:00;;;;;;;3.58;1.67;;;18.00;48.70;;;;;;5095460;28;20198;-72
2021/04/27 07:09:25;;;;;;;4.13;1.92;;;18.00;48.70;;;;;;5077576;28;20177;-72
2021/04/27 07:11:51;;;;;;;4.13;1.60;;;18.00;48.70;;;;;;5060083;28;20185;-71
2021/04/27 07:14:16;;;;;;;3.70;1.58;;;18.00;48.70;;;;;;5060686;28;20214;-72
2021/04/27 07:16:42;;;;;;;4.72;1.70;;;18.00;48.80;;;;;;5077016;28;20536;-73
2021/04/27 07:19:08;;;;;;;1.98;1.50;;;18.00;48.80;;;;;;5094748;28;20166;-73
2021/04/27 07:21:34;;;;;;;3.25;1.70;;;18.00;48.90;;;;;;5060245;28;20747;-72
2021/04/27 07:24:00;;;;;;;4.07;1.70;;;18.00;48.90;;;;;;5095219;28;20169;-69
2021/04/27 07:26:26;;;;;;;3.38;1.67;;;18.00;48.90;;;;;;5059852;28;20544;-69
2021/04/27 07:28:52;;;;;;;5.07;1.58;;;18.00;48.90;;;;;;5094632;28;20213;-70
2021/04/27 07:31:18;;;;;;;3.22;1.48;;;18.00;48.90;;;;;;5060517;28;20181;-63
2021/04/27 07:33:43;;;;;;;3.70;1.50;;;18.00;48.90;;;;;;5094144;28;20248;-64
2021/04/27 07:36:09;;;;;;;2.55;1.00;;;18.00;48.90;;;;;;5060484;28;20200;-64
2021/04/27 07:38:35;;;;;;;3.53;1.60;;;18.10;48.90;;;;;;5094310;28;20249;-66
2021/04/27 07:41:01;;;;;;;1.90;1.25;;;18.10;48.90;;;;;;5060462;28;20169;-67
2021/04/27 07:43:26;;;;;;;1.58;1.33;;;18.00;48.80;;;;;;5076945;28;20162;-69
2021/04/27 07:45:52;;;;;;;2.75;1.50;;;18.10;48.90;;;;;;5093840;28;20578;-69
2021/04/27 07:48:17;;;;;;;3.28;1.73;;;18.10;48.90;;;;;;5094860;28;20162;-72
2021/04/27 07:50:43;;;;;;;2.75;1.58;;;18.00;48.80;;;;;;5094593;28;20633;-67
2021/04/27 07:53:08;;;;;;;2.35;1.63;;;18.00;48.80;;;;;;5094210;28;20247;-67
2021/04/27 07:55:34;;;;;;;1.83;1.30;;;18.00;48.80;;;;;;5076437;28;20170;-68
2021/04/27 07:58:00;;;;;;;1.50;1.20;;;18.10;48.90;;;;;;5076825;28;20213;-68
2021/04/27 08:00:26;;;;;;;2.15;1.15;;;18.10;48.90;;;;;;5076074;28;20177;-72
2021/04/27 08:02:51;;;;;;;3.90;1.73;;;18.10;48.90;;;;;;5076411;28;20532;-65
2021/04/27 08:05:18;;;;;;;2.38;1.27;;;18.10;48.90;;;;;;5059781;28;20198;-66
2021/04/27 08:07:44;;;;;;;1.88;1.33;;;18.10;48.90;;;;;;5058558;28;20166;-67
2021/04/27 08:10:13;;;;;;;3.70;1.80;;;18.10;48.90;;;;;;5094520;28;20174;-67
2021/04/27 08:12:42;;;;;;;3.95;1.52;;;18.10;48.90;;;;;;5094064;28;20694;-70
2021/04/27 08:15:09;;;;;;;2.03;1.23;;;18.10;48.90;;;;;;5076317;28;20174;-67
2021/04/27 08:17:34;;;;;;;4.38;1.40;;;18.10;48.90;;;;;;5076172;28;20201;-68
2021/04/27 08:20:00;;;;;;;2.00;1.27;;;18.10;48.90;;;;;;5076262;28;20193;-72
2021/04/27 08:22:26;;;;;;;2.95;1.20;;;18.10;48.90;;;;;;5093721;28;20173;-69
2021/04/27 08:24:51;;;;;;;2.03;1.27;;;18.20;49.00;;;;;;5094005;28;20180;-68
2021/04/27 08:27:17;;;;;;;2.35;1.35;;;18.10;49.00;;;;;;5076136;28;20294;-66
2021/04/27 08:29:43;;;;;;;1.92;1.00;;;18.10;49.10;;;;;;5092907;28;20218;-67
2021/04/27 08:32:10;;;;;;;1.55;1.25;;;18.10;49.00;;;;;;5059583;28;20213;-65
2021/04/27 08:34:36;;;;;;;1.23;1.13;;;18.20;49.00;;;;;;5059293;28;20174;-67
2021/04/27 08:37:01;;;;;;;2.05;1.08;;;18.20;49.60;;;;;;5093438;28;20177;-68
2021/04/27 08:39:28;;;;;;;2.35;1.20;;;18.20;49.00;;;;;;5093986;28;20173;-70
2021/04/27 08:41:54;;;;;;;1.33;1.23;;;18.20;48.90;;;;;;5093681;28;20211;-68
2021/04/27 08:44:20;;;;;;;2.17;1.10;;;18.20;48.90;;;;;;5059350;28;20174;-68
2021/04/27 08:46:45;;;;;;;3.47;1.50;;;18.20;49.40;;;;;;5058798;28;20350;-67
2021/04/27 08:49:11;;;;;;;2.30;1.17;;;18.20;48.90;;;;;;5093354;28;20165;-66
2021/04/27 08:51:37;;;;;;;2.38;1.20;;;18.30;49.00;;;;;;5058675;28;20264;-67
2021/04/27 08:54:06;;;;;;;1.25;1.00;;;18.30;48.80;;;;;;5075571;28;20323;-73
2021/04/27 08:56:32;;;;;;;2.80;1.25;;;18.30;48.90;;;;;;5074911;28;20180;-68
2021/04/27 08:58:58;;;;;;;1.42;0.90;;;18.30;48.80;;;;;;5093652;28;20162;-67
2021/04/27 09:01:23;;;;;;;1.42;1.13;;;18.30;48.70;;;;;;5075402;28;20173;-72
2021/04/27 09:03:54;;;;;;;1.02;0.88;;;18.30;48.80;;;;;;5074547;28;20170;-71
2021/04/27 09:06:21;;;;;;;4.05;1.55;;;18.40;48.80;;;;;;5076073;28;20288;-67
2021/04/27 09:08:47;;;;;;;1.77;1.13;;;18.30;48.70;;;;;;5074944;28;20166;-67
2021/04/27 09:11:33;;;;;;;1.35;1.08;;;18.40;48.70;;;;;;5058088;28;20257;-67
2021/04/27 09:14:11;;;;;;;1.73;1.40;;;18.40;48.70;;;;;;5075327;28;20162;-66
2021/04/27 09:16:37;;;;;;;1.00;0.88;;;18.40;48.70;;;;;;5075610;28;20214;-71
2021/04/27 09:19:04;;;;;;;2.75;1.40;;;18.40;48.70;;;;;;5073676;28;20174;-68
2021/04/27 09:21:37;;;;;;;3.38;1.30;;;18.40;48.70;;;;;;5058245;28;20177;-69
2021/04/27 09:24:17;;;;;;;3.03;1.30;;;18.40;48.60;;;;;;5092794;28;20481;-67
2021/04/27 09:26:43;;;;;;;1.63;1.25;;;18.50;48.60;;;;;;5041445;28;20604;-71
2021/04/27 09:29:09;;;;;;;1.98;1.42;;;18.50;48.60;;;;;;5055803;28;20213;-68
2021/04/27 09:31:38;;;;;;;1.98;1.30;;;18.50;48.60;;;;;;5057150;28;20177;-63
2021/04/27 09:34:29;;;;;;;5.30;1.52;;;18.50;48.70;;;;;;5092971;28;20223;-64
2021/04/27 09:36:57;;;;;;;2.80;1.20;;;18.50;48.60;;;;;;5091405;28;20177;-66
2021/04/27 09:39:41;;;;;;;2.95;1.23;;;18.50;48.60;;;;;;5057399;28;20249;-67
2021/04/27 09:42:14;;;;;;;2.63;1.23;;;18.60;48.60;;;;;;5081339;28;20625;-68
2021/04/27 09:44:45;;;;;;;2.78;1.40;;;18.60;48.60;;;;;;5082708;28;20185;-67
2021/04/27 09:47:21;;;;;;;2.53;1.00;;;18.60;48.50;;;;;;5084792;28;20193;-66
2021/04/27 09:49:55;;;;;;;1.40;1.13;;;18.60;48.50;;;;;;5095552;28;20263;-67
2021/04/27 09:52:21;;;;;;;4.03;1.58;;;18.60;48.40;;;;;;5092134;28;20173;-66
2021/04/27 09:54:57;;;;;;;2.45;1.52;;;18.60;48.60;;;;;;5040847;28;20693;-67
2021/04/27 09:57:26;;;;;;;2.75;1.08;;;18.60;48.10;;;;;;5074962;28;20162;-68
2021/04/27 09:59:52;;;;;;;3.40;1.38;;;18.60;48.00;;;;;;5073719;28;20181;-67
2021/04/27 10:02:20;;;;;;;1.80;1.27;;;18.70;48.00;;;;;;5057757;28;20169;-67
2021/04/27 10:04:45;;;;;;;5.53;1.17;;;18.60;47.70;;;;;;5092290;28;20184;-66
2021/04/27 10:07:11;;;;;;;2.70;1.15;;;18.60;47.60;;;;;;5092188;28;20213;-66
2021/04/27 10:09:36;;;;;;;2.22;1.00;;;18.70;47.60;;;;;;5074235;28;20219;-67
2021/04/27 10:12:04;;;;;;;3.72;1.15;;;18.70;47.50;;;;;;5073346;28;20649;-67
2021/04/27 10:14:30;;;;;;;1.40;1.13;;;18.70;47.50;;;;;;5070588;28;20170;-68
2021/04/27 10:16:55;;;;;;;2.33;1.30;;;18.70;47.40;;;;;;5057596;28;20171;-67
2021/04/27 10:19:21;;;;;;;2.03;1.40;;;18.70;47.30;;;;;;5073767;28;20222;-67
2021/04/27 10:21:48;;;;;;;2.25;0.95;;;18.80;47.40;;;;;;5039819;28;20170;-67
2021/04/27 10:24:15;;;;;;;1.67;1.00;;;18.80;48.00;;;;;;5091824;28;20178;-68
2021/04/27 10:26:43;;;;;;;1.75;0.93;;;18.80;47.40;;;;;;5040781;28;20206;-69
2021/04/27 10:29:13;;;;;;;1.42;1.17;;;18.80;47.40;;;;;;5074413;28;20339;-65
2021/04/27 10:31:39;;;;;;;2.10;1.00;;;18.90;47.50;;;;;;5078467;28;20276;-65
2021/04/27 10:34:05;;;;;;;3.22;1.20;;;18.80;47.40;;;;;;5061470;28;20629;-66
2021/04/27 10:36:31;;;;;;;1.33;1.23;;;18.90;47.50;;;;;;5095354;28;20166;-66
2021/04/27 10:39:02;;;;;;;2.65;1.05;;;18.90;47.40;;;;;;5095783;28;20173;-72
2021/04/27 10:41:57;;;;;;;2.47;1.00;;;18.90;47.30;;;;;;5060674;28;20180;-69
2021/04/27 10:44:23;;;;;;;2.03;1.25;;;18.80;47.20;;;;;;5096113;28;20197;-68
2021/04/27 10:46:54;;;;;;;1.15;0.98;;;18.90;47.30;;;;;;5077560;28;20743;-68
2021/04/27 10:49:23;;;;;;;2.20;1.10;;;18.90;47.30;;;;;;5078009;28;20162;-67
2021/04/27 10:51:49;;;;;;;1.60;0.80;;;18.90;47.20;;;;;;5061609;28;20174;-67
2021/04/27 10:54:41;;;;;;;4.15;1.30;;;18.90;47.20;;;;;;5077734;28;20194;-70
2021/04/27 10:57:07;;;;;;;3.45;1.20;;;18.90;47.20;;;;;;5072598;28;20600;-68
2021/04/27 10:59:54;;;;;;;1.30;1.20;;;18.90;47.20;;;;;;5095567;28;20633;-68
2021/04/27 11:02:28;;;;;;;2.53;1.00;;;18.90;47.20;;;;;;5095957;28;20537;-70
2021/04/27 11:05:15;;;;;;;2.25;1.00;;;18.90;47.30;;;;;;5095052;28;20676;-66
2021/04/27 11:07:40;;;;;;;0.90;0.80;;;18.90;47.30;;;;;;5069700;28;20201;-66
2021/04/27 11:10:19;;;;;;;3.95;1.00;;;18.90;47.50;;;;;;5094908;28;20543;-68
2021/04/27 11:12:59;;;;;;;4.65;1.00;;;19.00;47.60;;;;;;5077502;28;20243;-67
2021/04/27 11:15:30;;;;;;;1.85;0.90;;;19.00;47.50;;;;;;5061038;28;20216;-68
2021/04/27 11:18:15;;;;;;;3.13;1.20;;;19.10;47.60;;;;;;5094977;28;20194;-68
2021/04/27 11:20:48;;;;;;;1.65;0.90;;;19.10;47.60;;;;;;5078222;28;20169;-67
2021/04/27 11:23:33;;;;;;;1.65;1.00;;;19.10;47.60;;;;;;5095378;28;20170;-68
2021/04/27 11:25:58;;;;;;;0.63;0.60;;;19.10;47.60;;;;;;5094564;28;20573;-68
2021/04/27 11:28:54;;;;;;;3.80;1.00;;;19.10;47.70;;;;;;5077139;28;20165;-68
2021/04/27 11:31:19;;;;;;;1.23;1.02;;;19.10;47.70;;;;;;5083686;28;20193;-70
2021/04/27 11:33:57;;;;;;;1.95;0.80;;;19.10;47.70;;;;;;5077155;28;20188;-71
2021/04/27 11:36:41;;;;;;;1.90;1.35;;;19.10;47.70;;;;;;5095189;28;20177;-69
2021/04/27 11:39:13;;;;;;;1.63;0.80;;;19.10;47.70;;;;;;5076541;28;20169;-70
2021/04/27 11:41:49;;;;;;;1.30;0.90;;;19.20;47.80;;;;;;5093677;28;20174;-70
2021/04/27 11:44:16;;;;;;;1.10;1.00;;;19.20;47.70;;;;;;5044584;28;20174;-69
2021/04/27 11:46:54;;;;;;;1.75;0.80;;;19.20;47.70;;;;;;5059596;28;20206;-69
2021/04/27 11:49:20;;;;;;;1.92;0.98;;;19.20;47.60;;;;;;5095263;28;20166;-69
2021/04/27 11:51:46;;;;;;;4.93;1.05;;;19.20;47.60;;;;;;5059333;28;20633;-69
2021/04/27 11:54:12;;;;;;;2.53;0.93;;;19.20;47.60;;;;;;5094812;28;20257;-69
2021/04/27 11:56:50;;;;;;;1.73;0.88;;;19.20;47.50;;;;;;5094520;28;20182;-70
2021/04/27 11:59:19;;;;;;;0.98;0.70;;;19.20;47.40;;;;;;5076078;28;20180;-70
2021/04/27 12:01:45;;;;;;;1.85;0.90;;;19.20;47.40;;;;;;5059732;28;20193;-70
2021/04/27 12:04:11;;;;;;;1.80;0.90;;;19.30;48.10;;;;;;5076639;28;20215;-70
2021/04/27 12:06:37;;;;;;;2.58;1.13;;;19.30;47.30;;;;;;5093671;28;20210;-71
2021/04/27 12:09:03;;;;;;;0.93;0.80;;;19.30;47.20;;;;;;5042864;28;20170;-70
2021/04/27 12:11:30;;;;;;;1.20;1.10;;;19.30;47.10;;;;;;5076009;28;20173;-69
2021/04/27 12:14:09;;;;;;;1.60;0.77;;;19.30;47.00;;;;;;5093705;28;20535;-69
2021/04/27 12:16:36;;;;;;;1.02;0.80;;;19.30;46.90;;;;;;5078029;28;20169;-69
2021/04/27 12:19:07;;;;;;;0.88;0.80;;;19.40;46.70;;;;;;5076309;28;20629;-64
2021/04/27 12:21:39;;;;;;;0.85;0.80;;;19.40;46.60;;;;;;5042672;28;20166;-63
2021/04/27 12:24:23;;;;;;;1.77;1.10;;;19.40;46.50;;;;;;5094149;28;20173;-64
2021/04/27 12:27:03;;;;;;;3.28;0.98;;;19.40;46.40;;;;;;5093848;28;20268;-63
2021/04/27 12:29:32;;;;;;;1.10;1.00;;;19.40;46.10;;;;;;5093789;28;20245;-64
2021/04/27 12:32:09;;;;;;;2.65;1.17;;;19.40;45.90;;;;;;5095014;28;20200;-72
2021/04/27 12:34:35;;;;;;;2.22;1.10;;;19.40;45.80;;;;;;5063482;28;20176;-71
2021/04/27 12:37:00;;;;;;;2.40;1.08;;;19.50;45.80;;;;;;5093804;28;20166;-72
2021/04/27 12:39:30;;;;;;;3.63;1.27;;;19.50;45.00;;;;;;5059178;28;20182;-70
2021/04/27 12:42:04;;;;;;;1.27;0.88;;;19.50;44.60;;;;;;5075527;28;20170;-71
2021/04/27 12:44:34;;;;;;;3.92;1.10;;;19.50;44.30;;;;;;5075191;28;20178;-70
2021/04/27 12:47:17;;;;;;;0.90;0.90;;;19.50;44.30;;;;;;5093685;28;20205;-70
2021/04/27 12:49:42;;;;;;;1.17;1.08;;;19.60;44.30;;;;;;5058483;28;20253;-70
2021/04/27 12:52:14;;;;;;;1.02;0.70;;;19.60;44.30;;;;;;5075602;28;20204;-69